Station Historical Data
Daily Summary for March 02, 2012 Units:  Both    English   Metric
« Previous Day
Next Day »
Daily Weekly Monthly Yearly Custom
  High: Low: Average:
Temperature: 78.6 °F /  25.9 °C 52.1 °F /  11.2 °C 67.1 °F /  19.5 °C
Dew Point: 66.4 °F /  19.1 °C 39.9 °F /  4.4 °C 60.5 °F /  15.8 °C
Humidity: 92% 54% 80%
Wind Speed: 24.0mph /  38.6km/h - 8.8mph /  14.2km/h
Wind Gust: 31.0mph /  49.9km/h - -
Wind- - SSW
Pressure: 29.75 in /  1007.3 hPa 29.52 in /  999.5 hPa -
Precipitation: 0.20 in /  5.08 mm    
Historical Graphs
 
 
Tabular Data for March 02, 2012
Time Temperature Dew Point Pressure Wind Wind Speed Wind Gust Humidity Rainfall Rate (Hourly) Conditions
00:00 62.4 °F /  16.9 °C 51.7 °F /  10.9 °C 29.75in /  1007.3hPa SE 4.0mph /  6.4km/h 7.0mph /  11.3km/h 68% 0.00in /  0mm
00:01 62.4 °F /  16.9 °C 51.7 °F /  10.9 °C 29.75in /  1007.3hPa SSE 5.0mph /  8km/h 7.0mph /  11.3km/h 68% 0.00in /  0mm
00:06 62.4 °F /  16.9 °C 52.1 °F /  11.2 °C 29.75in /  1007.3hPa SE 4.0mph /  6.4km/h 7.0mph /  11.3km/h 69% 0.00in /  0mm
00:11 62.3 °F /  16.8 °C 52.8 °F /  11.6 °C 29.74in /  1007hPa SSE 4.0mph /  6.4km/h 8.0mph /  12.9km/h 71% 0.00in /  0mm
00:16 62.2 °F /  16.8 °C 53.1 °F /  11.7 °C 29.74in /  1007hPa SE 6.0mph /  9.7km/h 8.0mph /  12.9km/h 72% 0.00in /  0mm
00:21 62.2 °F /  16.8 °C 53.5 °F /  11.9 °C 29.74in /  1007hPa SSE 4.0mph /  6.4km/h 9.0mph /  14.5km/h 73% 0.00in /  0mm
00:26 62.1 °F /  16.7 °C 53.3 °F /  11.8 °C 29.74in /  1007hPa ESE 6.0mph /  9.7km/h 8.0mph /  12.9km/h 73% 0.00in /  0mm
00:31 62.1 °F /  16.7 °C 53.7 °F /  12.1 °C 29.73in /  1006.7hPa SE 5.0mph /  8km/h 9.0mph /  14.5km/h 74% 0.00in /  0mm
00:36 62.2 °F /  16.8 °C 54.5 °F /  12.5 °C 29.73in /  1006.7hPa SE 5.0mph /  8km/h 10.0mph /  16.1km/h 76% 0.00in /  0mm
00:41 62.2 °F /  16.8 °C 54.9 °F /  12.7 °C 29.73in /  1006.7hPa SE 4.0mph /  6.4km/h 9.0mph /  14.5km/h 77% 0.00in /  0mm
00:46 62.2 °F /  16.8 °C 55.3 °F /  12.9 °C 29.73in /  1006.7hPa SE 6.0mph /  9.7km/h 7.0mph /  11.3km/h 78% 0.00in /  0mm
00:51 62.2 °F /  16.8 °C 55.6 °F /  13.1 °C 29.73in /  1006.7hPa SE 7.0mph /  11.3km/h 9.0mph /  14.5km/h 79% 0.00in /  0mm
00:57 62.3 °F /  16.8 °C 56.4 °F /  13.6 °C 29.73in /  1006.7hPa SE 7.0mph /  11.3km/h 10.0mph /  16.1km/h 81% 0.00in /  0mm
01:02 62.5 °F /  16.9 °C 56.6 °F /  13.7 °C 29.73in /  1006.7hPa SE 9.0mph /  14.5km/h 11.0mph /  17.7km/h 81% 0.00in /  0mm
01:07 62.5 °F /  16.9 °C 56.6 °F /  13.7 °C 29.73in /  1006.7hPa SE 7.0mph /  11.3km/h 10.0mph /  16.1km/h 81% 0.00in /  0mm
01:12 62.5 °F /  16.9 °C 56.9 °F /  13.8 °C 29.73in /  1006.7hPa SE 7.0mph /  11.3km/h 9.0mph /  14.5km/h 82% 0.00in /  0mm
01:17 62.7 °F /  17.1 °C 57.5 °F /  14.2 °C 29.73in /  1006.7hPa SSE 7.0mph /  11.3km/h 12.0mph /  19.3km/h 83% 0.00in /  0mm
01:22 62.5 °F /  16.9 °C 57.6 °F /  14.2 °C 29.73in /  1006.7hPa SSE 6.0mph /  9.7km/h 9.0mph /  14.5km/h 84% 0.00in /  0mm
01:27 62.6 °F /  17 °C 58.0 °F /  14.4 °C 29.73in /  1006.7hPa SSE 6.0mph /  9.7km/h 9.0mph /  14.5km/h 85% 0.00in /  0mm
01:32 62.5 °F /  16.9 °C 58.3 °F /  14.6 °C 29.73in /  1006.7hPa SSE 4.0mph /  6.4km/h 9.0mph /  14.5km/h 86% 0.00in /  0mm
01:37 62.5 °F /  16.9 °C 58.3 °F /  14.6 °C 29.73in /  1006.7hPa SSE 7.0mph /  11.3km/h 8.0mph /  12.9km/h 86% 0.00in /  0mm
01:42 62.5 °F /  16.9 °C 58.6 °F /  14.8 °C 29.73in /  1006.7hPa SE 7.0mph /  11.3km/h 8.0mph /  12.9km/h 87% 0.00in /  0mm
01:47 62.5 °F /  16.9 °C 58.6 °F /  14.8 °C 29.73in /  1006.7hPa SSE 7.0mph /  11.3km/h 7.0mph /  11.3km/h 87% 0.00in /  0mm
01:52 62.6 °F /  17 °C 58.7 °F /  14.8 °C 29.73in /  1006.7hPa SE 5.0mph /  8km/h 8.0mph /  12.9km/h 87% 0.00in /  0mm
01:57 62.6 °F /  17 °C 59.0 °F /  15 °C 29.73in /  1006.7hPa SSE 5.0mph /  8km/h 8.0mph /  12.9km/h 88% 0.00in /  0mm
02:02 62.6 °F /  17 °C 59.0 °F /  15 °C 29.73in /  1006.7hPa SE 6.0mph /  9.7km/h 8.0mph /  12.9km/h 88% 0.00in /  0mm
02:07 62.7 °F /  17.1 °C 59.4 °F /  15.2 °C 29.73in /  1006.7hPa SSW 6.0mph /  9.7km/h 8.0mph /  12.9km/h 89% 0.00in /  0mm
02:12 62.8 °F /  17.1 °C 59.8 °F /  15.4 °C 29.73in /  1006.7hPa SSE 6.0mph /  9.7km/h 8.0mph /  12.9km/h 90% 0.00in /  0mm
02:17 63.0 °F /  17.2 °C 60.0 °F /  15.6 °C 29.73in /  1006.7hPa SSE 6.0mph /  9.7km/h 10.0mph /  16.1km/h 90% 0.00in /  0mm
02:22 63.1 °F /  17.3 °C 60.1 °F /  15.6 °C 29.73in /  1006.7hPa SSE 6.0mph /  9.7km/h 9.0mph /  14.5km/h 90% 0.00in /  0mm
02:27 63.1 °F /  17.3 °C 60.1 °F /  15.6 °C 29.72in /  1006.3hPa SE 4.0mph /  6.4km/h 7.0mph /  11.3km/h 90% 0.00in /  0mm
02:32 63.2 °F /  17.3 °C 60.5 °F /  15.8 °C 29.72in /  1006.3hPa SE 7.0mph /  11.3km/h 9.0mph /  14.5km/h 91% 0.00in /  0mm
02:37 63.4 °F /  17.4 °C 60.7 °F /  15.9 °C 29.72in /  1006.3hPa SSE 9.0mph /  14.5km/h 11.0mph /  17.7km/h 91% 0.00in /  0mm
02:42 63.5 °F /  17.5 °C 60.8 °F /  16 °C 29.72in /  1006.3hPa SSE 7.0mph /  11.3km/h 8.0mph /  12.9km/h 91% 0.00in /  0mm
02:47 63.6 °F /  17.6 °C 60.9 °F /  16.1 °C 29.72in /  1006.3hPa South 6.0mph /  9.7km/h 8.0mph /  12.9km/h 91% 0.00in /  0mm
02:52 63.7 °F /  17.6 °C 61.3 °F /  16.3 °C 29.71in /  1006hPa SE 6.0mph /  9.7km/h 10.0mph /  16.1km/h 92% 0.00in /  0mm
02:57 64.1 °F /  17.8 °C 61.7 °F /  16.5 °C 29.71in /  1006hPa South 8.0mph /  12.9km/h 12.0mph /  19.3km/h 92% 0.00in /  0mm
03:02 64.2 °F /  17.9 °C 61.8 °F /  16.6 °C 29.72in /  1006.3hPa South 4.0mph /  6.4km/h 11.0mph /  17.7km/h 92% 0.00in /  0mm
03:07 64.2 °F /  17.9 °C 61.8 °F /  16.6 °C 29.71in /  1006hPa SSE 5.0mph /  8km/h 9.0mph /  14.5km/h 92% 0.00in /  0mm
03:12 64.1 °F /  17.8 °C 61.7 °F /  16.5 °C 29.71in /  1006hPa SSE 5.0mph /  8km/h 10.0mph /  16.1km/h 92% 0.00in /  0mm
03:17 64.2 °F /  17.9 °C 61.8 °F /  16.6 °C 29.70in /  1005.6hPa SSW 3.0mph /  4.8km/h 6.0mph /  9.7km/h 92% 0.00in /  0mm
03:22 64.2 °F /  17.9 °C 61.8 °F /  16.6 °C 29.71in /  1006hPa South 5.0mph /  8km/h 5.0mph /  8km/h 92% 0.00in /  0mm
03:27 64.4 °F /  18 °C 62.0 °F /  16.7 °C 29.71in /  1006hPa South 8.0mph /  12.9km/h 8.0mph /  12.9km/h 92% 0.00in /  0mm
03:33 64.6 °F /  18.1 °C 62.2 °F /  16.8 °C 29.71in /  1006hPa SSE 7.0mph /  11.3km/h 8.0mph /  12.9km/h 92% 0.00in /  0mm
03:38 64.8 °F /  18.2 °C 62.4 °F /  16.9 °C 29.72in /  1006.3hPa SSE 8.0mph /  12.9km/h 8.0mph /  12.9km/h 92% 0.00in /  0mm
03:43 64.9 °F /  18.3 °C 62.5 °F /  16.9 °C 29.70in /  1005.6hPa SE 5.0mph /  8km/h 7.0mph /  11.3km/h 92% 0.00in /  0mm
03:48 64.8 °F /  18.2 °C 62.4 °F /  16.9 °C 29.70in /  1005.6hPa South 7.0mph /  11.3km/h 8.0mph /  12.9km/h 92% 0.00in /  0mm
03:53 64.9 °F /  18.3 °C 62.5 °F /  16.9 °C 29.71in /  1006hPa South 6.0mph /  9.7km/h 8.0mph /  12.9km/h 92% 0.00in /  0mm
03:58 65.0 °F /  18.3 °C 62.6 °F /  17 °C 29.71in /  1006hPa SSW 4.0mph /  6.4km/h 6.0mph /  9.7km/h 92% 0.00in /  0mm
04:03 65.2 °F /  18.4 °C 62.8 °F /  17.1 °C 29.71in /  1006hPa South 5.0mph /  8km/h 9.0mph /  14.5km/h 92% 0.00in /  0mm
04:08 65.2 °F /  18.4 °C 62.8 °F /  17.1 °C 29.70in /  1005.6hPa SSE 4.0mph /  6.4km/h 7.0mph /  11.3km/h 92% 0.00in /  0mm
04:13 65.1 °F /  18.4 °C 62.7 °F /  17.1 °C 29.70in /  1005.6hPa South 2.0mph /  3.2km/h 6.0mph /  9.7km/h 92% 0.00in /  0mm
04:18 65.0 °F /  18.3 °C 62.6 °F /  17 °C 29.71in /  1006hPa South 7.0mph /  11.3km/h 8.0mph /  12.9km/h 92% 0.00in /  0mm
04:23 65.1 °F /  18.4 °C 62.7 °F /  17.1 °C 29.71in /  1006hPa SSE 3.0mph /  4.8km/h 6.0mph /  9.7km/h 92% 0.00in /  0mm
04:28 65.1 °F /  18.4 °C 62.7 °F /  17.1 °C 29.71in /  1006hPa SW 7.0mph /  11.3km/h 7.0mph /  11.3km/h 92% 0.00in /  0mm
04:33 65.2 °F /  18.4 °C 62.8 °F /  17.1 °C 29.71in /  1006hPa South 4.0mph /  6.4km/h 7.0mph /  11.3km/h 92% 0.00in /  0mm
04:38 65.2 °F /  18.4 °C 62.8 °F /  17.1 °C 29.71in /  1006hPa SSE 9.0mph /  14.5km/h 9.0mph /  14.5km/h 92% 0.00in /  0mm
04:43 65.2 °F /  18.4 °C 62.8 °F /  17.1 °C 29.70in /  1005.6hPa SSE 3.0mph /  4.8km/h 5.0mph /  8km/h 92% 0.00in /  0mm
04:48 65.0 °F /  18.3 °C 62.6 °F /  17 °C 29.70in /  1005.6hPa SSW 5.0mph /  8km/h 5.0mph /  8km/h 92% 0.00in /  0mm
04:53 65.0 °F /  18.3 °C 62.6 °F /  17 °C 29.70in /  1005.6hPa SSE 4.0mph /  6.4km/h 6.0mph /  9.7km/h 92% 0.00in /  0mm
04:58 65.0 °F /  18.3 °C 62.6 °F /  17 °C 29.70in /  1005.6hPa SSE 3.0mph /  4.8km/h 7.0mph /  11.3km/h 92% 0.00in /  0mm
05:03 64.9 °F /  18.3 °C 62.5 °F /  16.9 °C 29.70in /  1005.6hPa South 8.0mph /  12.9km/h 10.0mph /  16.1km/h 92% 0.00in /  0mm
05:08 64.9 °F /  18.3 °C 62.5 °F /  16.9 °C 29.69in /  1005.3hPa SSE 4.0mph /  6.4km/h 7.0mph /  11.3km/h 92% 0.00in /  0mm
05:13 64.9 °F /  18.3 °C 62.5 °F /  16.9 °C 29.70in /  1005.6hPa SSE 3.0mph /  4.8km/h 6.0mph /  9.7km/h 92% 0.00in /  0mm
05:18 65.0 °F /  18.3 °C 62.3 °F /  16.8 °C 29.70in /  1005.6hPa SSE 5.0mph /  8km/h 7.0mph /  11.3km/h 91% 0.00in /  0mm
05:23 65.1 °F /  18.4 °C 62.4 °F /  16.9 °C 29.69in /  1005.3hPa SE 5.0mph /  8km/h 8.0mph /  12.9km/h 91% 0.00in /  0mm
05:28 65.2 °F /  18.4 °C 62.5 °F /  16.9 °C 29.69in /  1005.3hPa South 5.0mph /  8km/h 8.0mph /  12.9km/h 91% 0.00in /  0mm
05:33 65.3 °F /  18.5 °C 62.6 °F /  17 °C 29.69in /  1005.3hPa South 4.0mph /  6.4km/h 8.0mph /  12.9km/h 91% 0.00in /  0mm
05:38 65.4 °F /  18.6 °C 62.7 °F /  17.1 °C 29.69in /  1005.3hPa SSE 7.0mph /  11.3km/h 9.0mph /  14.5km/h 91% 0.00in /  0mm
05:43 65.4 °F /  18.6 °C 62.4 °F /  16.9 °C 29.69in /  1005.3hPa SSE 6.0mph /  9.7km/h 8.0mph /  12.9km/h 90% 0.00in /  0mm
05:48 65.5 °F /  18.6 °C 62.5 °F /  16.9 °C 29.69in /  1005.3hPa SSE 4.0mph /  6.4km/h 8.0mph /  12.9km/h 90% 0.00in /  0mm
05:53 65.6 °F /  18.7 °C 62.6 °F /  17 °C 29.69in /  1005.3hPa SSE 3.0mph /  4.8km/h 7.0mph /  11.3km/h 90% 0.00in /  0mm
05:58 65.6 °F /  18.7 °C 62.6 °F /  17 °C 29.69in /  1005.3hPa SSE 6.0mph /  9.7km/h 9.0mph /  14.5km/h 90% 0.00in /  0mm
06:03 65.6 °F /  18.7 °C 62.6 °F /  17 °C 29.68in /  1005hPa SE 6.0mph /  9.7km/h 8.0mph /  12.9km/h 90% 0.00in /  0mm
06:08 65.7 °F /  18.7 °C 62.7 °F /  17.1 °C 29.68in /  1005hPa SE 4.0mph /  6.4km/h 10.0mph /  16.1km/h 90% 0.00in /  0mm
06:13 65.7 °F /  18.7 °C 62.4 °F /  16.9 °C 29.68in /  1005hPa SE 6.0mph /  9.7km/h 8.0mph /  12.9km/h 89% 0.00in /  0mm
06:18 65.7 °F /  18.7 °C 62.4 °F /  16.9 °C 29.68in /  1005hPa SSE 13.0mph /  20.9km/h 14.0mph /  22.5km/h 89% 0.00in /  0mm
06:23 65.7 °F /  18.7 °C 62.4 °F /  16.9 °C 29.68in /  1005hPa SSW 6.0mph /  9.7km/h 11.0mph /  17.7km/h 89% 0.00in /  0mm
06:29 65.8 °F /  18.8 °C 62.5 °F /  16.9 °C 29.67in /  1004.6hPa SSE 8.0mph /  12.9km/h 15.0mph /  24.1km/h 89% 0.00in /  0mm
06:33 65.9 °F /  18.8 °C 62.6 °F /  17 °C 29.68in /  1005hPa SSE 6.0mph /  9.7km/h 10.0mph /  16.1km/h 89% 0.00in /  0mm
06:39 65.9 °F /  18.8 °C 62.6 °F /  17 °C 29.67in /  1004.6hPa SE 7.0mph /  11.3km/h 9.0mph /  14.5km/h 89% 0.00in /  0mm
06:44 65.8 °F /  18.8 °C 62.8 °F /  17.1 °C 29.68in /  1005hPa SSE 6.0mph /  9.7km/h 10.0mph /  16.1km/h 90% 1.23in /  31.24mm
06:49 65.6 °F /  18.7 °C 62.6 °F /  17 °C 29.68in /  1005hPa SSE 6.0mph /  9.7km/h 8.0mph /  12.9km/h 90% 0.23in /  5.84mm
06:54 65.4 °F /  18.6 °C 62.7 °F /  17.1 °C 29.67in /  1004.6hPa SSW 7.0mph /  11.3km/h 11.0mph /  17.7km/h 91% 0.08in /  2.03mm
06:59 65.3 °F /  18.5 °C 62.6 °F /  17 °C 29.67in /  1004.6hPa SSE 6.0mph /  9.7km/h 8.0mph /  12.9km/h 91% 0.05in /  1.27mm
07:04 65.2 °F /  18.4 °C 62.5 °F /  16.9 °C 29.67in /  1004.6hPa South 8.0mph /  12.9km/h 11.0mph /  17.7km/h 91% 0.04in /  1.02mm
07:09 65.3 °F /  18.5 °C 62.6 °F /  17 °C 29.67in /  1004.6hPa SSE 8.0mph /  12.9km/h 11.0mph /  17.7km/h 91% 0.04in /  1.02mm
07:14 65.4 °F /  18.6 °C 62.7 °F /  17.1 °C 29.66in /  1004.3hPa SSW 8.0mph /  12.9km/h 13.0mph /  20.9km/h 91% 0.04in /  1.02mm
07:19 65.4 °F /  18.6 °C 62.7 °F /  17.1 °C 29.66in /  1004.3hPa SSE 6.0mph /  9.7km/h 9.0mph /  14.5km/h 91% 0.00in /  0mm
07:24 65.4 °F /  18.6 °C 62.7 °F /  17.1 °C 29.66in /  1004.3hPa SSW 7.0mph /  11.3km/h 9.0mph /  14.5km/h 91% 0.00in /  0mm
07:29 65.4 °F /  18.6 °C 62.7 °F /  17.1 °C 29.66in /  1004.3hPa South 5.0mph /  8km/h 9.0mph /  14.5km/h 91% 0.00in /  0mm
07:34 65.3 °F /  18.5 °C 62.6 °F /  17 °C 29.65in /  1003.9hPa SSE 8.0mph /  12.9km/h 13.0mph /  20.9km/h 91% 0.00in /  0mm
07:39 65.2 °F /  18.4 °C 62.5 °F /  16.9 °C 29.65in /  1003.9hPa SE 6.0mph /  9.7km/h 10.0mph /  16.1km/h 91% 0.00in /  0mm
07:44 65.2 °F /  18.4 °C 62.8 °F /  17.1 °C 29.65in /  1003.9hPa SSE 7.0mph /  11.3km/h 10.0mph /  16.1km/h 92% 0.00in /  0mm
07:49 65.2 °F /  18.4 °C 62.8 °F /  17.1 °C 29.65in /  1003.9hPa SSE 14.0mph /  22.5km/h 14.0mph /  22.5km/h 92% 0.00in /  0mm
07:54 65.3 °F /  18.5 °C 62.6 °F /  17 °C 29.65in /  1003.9hPa SSE 9.0mph /  14.5km/h 9.0mph /  14.5km/h 91% 0.00in /  0mm
07:59 65.3 °F /  18.5 °C 62.6 °F /  17 °C 29.65in /  1003.9hPa South 6.0mph /  9.7km/h 13.0mph /  20.9km/h 91% 0.00in /  0mm
08:04 65.4 °F /  18.6 °C 63.0 °F /  17.2 °C 29.64in /  1003.6hPa South 6.0mph /  9.7km/h 12.0mph /  19.3km/h 92% 0.00in /  0mm
08:09 65.5 °F /  18.6 °C 62.8 °F /  17.1 °C 29.65in /  1003.9hPa SE 7.0mph /  11.3km/h 13.0mph /  20.9km/h 91% 0.00in /  0mm
08:14 65.6 °F /  18.7 °C 62.9 °F /  17.2 °C 29.65in /  1003.9hPa SSE 12.0mph /  19.3km/h 12.0mph /  19.3km/h 91% 0.00in /  0mm
08:19 65.6 °F /  18.7 °C 62.9 °F /  17.2 °C 29.65in /  1003.9hPa South 10.0mph /  16.1km/h 13.0mph /  20.9km/h 91% 0.00in /  0mm
08:24 65.7 °F /  18.7 °C 63.0 °F /  17.2 °C 29.65in /  1003.9hPa SSE 15.0mph /  24.1km/h 17.0mph /  27.4km/h 91% 0.00in /  0mm
08:29 65.8 °F /  18.8 °C 63.1 °F /  17.3 °C 29.65in /  1003.9hPa SSW 7.0mph /  11.3km/h 12.0mph /  19.3km/h 91% 0.00in /  0mm
08:34 65.8 °F /  18.8 °C 63.1 °F /  17.3 °C 29.64in /  1003.6hPa South 11.0mph /  17.7km/h 11.0mph /  17.7km/h 91% 0.00in /  0mm
08:39 65.9 °F /  18.8 °C 63.2 °F /  17.3 °C 29.64in /  1003.6hPa SSE 7.0mph /  11.3km/h 15.0mph /  24.1km/h 91% 0.00in /  0mm
08:44 65.9 °F /  18.8 °C 63.2 °F /  17.3 °C 29.64in /  1003.6hPa SSW 12.0mph /  19.3km/h 15.0mph /  24.1km/h 91% 0.00in /  0mm
08:49 66.0 °F /  18.9 °C 63.3 °F /  17.4 °C 29.64in /  1003.6hPa South 7.0mph /  11.3km/h 16.0mph /  25.7km/h 91% 0.00in /  0mm
08:54 66.0 °F /  18.9 °C 63.3 °F /  17.4 °C 29.64in /  1003.6hPa SW 14.0mph /  22.5km/h 17.0mph /  27.4km/h 91% 0.20in /  5.08mm
08:59 66.0 °F /  18.9 °C 63.6 °F /  17.6 °C 29.64in /  1003.6hPa SSE 7.0mph /  11.3km/h 17.0mph /  27.4km/h 92% 0.13in /  3.3mm
09:04 66.1 °F /  18.9 °C 63.7 °F /  17.6 °C 29.64in /  1003.6hPa SW 10.0mph /  16.1km/h 21.0mph /  33.8km/h 92% 0.06in /  1.52mm
09:09 66.1 °F /  18.9 °C 63.7 °F /  17.6 °C 29.64in /  1003.6hPa WSW 13.0mph /  20.9km/h 20.0mph /  32.2km/h 92% 0.04in /  1.02mm
09:14 66.0 °F /  18.9 °C 63.6 °F /  17.6 °C 29.65in /  1003.9hPa SSW 6.0mph /  9.7km/h 15.0mph /  24.1km/h 92% 0.00in /  0mm
09:19 66.0 °F /  18.9 °C 63.6 °F /  17.6 °C 29.64in /  1003.6hPa SSW 6.0mph /  9.7km/h 12.0mph /  19.3km/h 92% 0.00in /  0mm
09:24 66.1 °F /  18.9 °C 63.7 °F /  17.6 °C 29.65in /  1003.9hPa South 9.0mph /  14.5km/h 14.0mph /  22.5km/h 92% 0.00in /  0mm
09:29 66.3 °F /  19.1 °C 63.9 °F /  17.7 °C 29.64in /  1003.6hPa South 9.0mph /  14.5km/h 14.0mph /  22.5km/h 92% 0.00in /  0mm
09:35 66.5 °F /  19.2 °C 64.1 °F /  17.8 °C 29.64in /  1003.6hPa SE 11.0mph /  17.7km/h 12.0mph /  19.3km/h 92% 0.00in /  0mm
09:40 66.9 °F /  19.4 °C 64.2 °F /  17.9 °C 29.64in /  1003.6hPa SSW 5.0mph /  8km/h 14.0mph /  22.5km/h 91% 0.00in /  0mm
09:45 67.1 °F /  19.5 °C 64.4 °F /  18 °C 29.64in /  1003.6hPa SSW 8.0mph /  12.9km/h 12.0mph /  19.3km/h 91% 0.00in /  0mm
09:50 67.1 °F /  19.5 °C 64.4 °F /  18 °C 29.63in /  1003.3hPa SSE 8.0mph /  12.9km/h 12.0mph /  19.3km/h 91% 0.00in /  0mm
09:55 67.1 °F /  19.5 °C 64.4 °F /  18 °C 29.63in /  1003.3hPa South 5.0mph /  8km/h 12.0mph /  19.3km/h 91% 0.00in /  0mm
10:00 67.1 °F /  19.5 °C 64.4 °F /  18 °C 29.64in /  1003.6hPa South 14.0mph /  22.5km/h 14.0mph /  22.5km/h 91% 0.00in /  0mm
10:05 67.1 °F /  19.5 °C 64.4 °F /  18 °C 29.64in /  1003.6hPa SSW 8.0mph /  12.9km/h 11.0mph /  17.7km/h 91% 0.00in /  0mm
10:10 67.2 °F /  19.6 °C 64.5 °F /  18.1 °C 29.64in /  1003.6hPa SSE 11.0mph /  17.7km/h 11.0mph /  17.7km/h 91% 0.00in /  0mm
10:15 67.4 °F /  19.7 °C 64.4 °F /  18 °C 29.63in /  1003.3hPa SSW 6.0mph /  9.7km/h 14.0mph /  22.5km/h 90% 0.00in /  0mm
10:20 67.4 °F /  19.7 °C 64.4 °F /  18 °C 29.64in /  1003.6hPa South 7.0mph /  11.3km/h 10.0mph /  16.1km/h 90% 0.00in /  0mm
10:25 67.5 °F /  19.7 °C 64.5 °F /  18.1 °C 29.63in /  1003.3hPa SSW 7.0mph /  11.3km/h 14.0mph /  22.5km/h 90% 0.00in /  0mm
10:30 67.7 °F /  19.8 °C 64.7 °F /  18.2 °C 29.64in /  1003.6hPa South 6.0mph /  9.7km/h 11.0mph /  17.7km/h 90% 0.00in /  0mm
10:35 68.0 °F /  20 °C 65.0 °F /  18.3 °C 29.64in /  1003.6hPa SW 11.0mph /  17.7km/h 12.0mph /  19.3km/h 90% 0.00in /  0mm
10:40 68.7 °F /  20.4 °C 65.3 °F /  18.5 °C 29.64in /  1003.6hPa SSW 12.0mph /  19.3km/h 19.0mph /  30.6km/h 89% 0.00in /  0mm
10:45 69.3 °F /  20.7 °C 64.9 °F /  18.3 °C 29.64in /  1003.6hPa SW 6.0mph /  9.7km/h 16.0mph /  25.7km/h 86% 0.00in /  0mm
10:50 69.5 °F /  20.8 °C 65.1 °F /  18.4 °C 29.63in /  1003.3hPa SSW 7.0mph /  11.3km/h 17.0mph /  27.4km/h 86% 0.00in /  0mm
10:55 69.7 °F /  20.9 °C 65.0 °F /  18.3 °C 29.63in /  1003.3hPa SSW 11.0mph /  17.7km/h 17.0mph /  27.4km/h 85% 0.00in /  0mm
11:00 69.8 °F /  21 °C 65.1 °F /  18.4 °C 29.63in /  1003.3hPa SSE 9.0mph /  14.5km/h 22.0mph /  35.4km/h 85% 0.00in /  0mm
11:05 70.1 °F /  21.2 °C 65.4 °F /  18.6 °C 29.62in /  1002.9hPa SSE 11.0mph /  17.7km/h 18.0mph /  29km/h 85% 0.00in /  0mm
11:10 70.3 °F /  21.3 °C 65.2 °F /  18.4 °C 29.62in /  1002.9hPa SW 13.0mph /  20.9km/h 13.0mph /  20.9km/h 84% 0.00in /  0mm
11:15 70.2 °F /  21.2 °C 65.1 °F /  18.4 °C 29.62in /  1002.9hPa SSW 8.0mph /  12.9km/h 17.0mph /  27.4km/h 84% 0.00in /  0mm
11:20 70.6 °F /  21.4 °C 65.2 °F /  18.4 °C 29.62in /  1002.9hPa SSW 10.0mph /  16.1km/h 21.0mph /  33.8km/h 83% 0.00in /  0mm
11:25 71.0 °F /  21.7 °C 65.2 °F /  18.4 °C 29.62in /  1002.9hPa SSW 18.0mph /  29km/h 21.0mph /  33.8km/h 82% 0.00in /  0mm
11:30 71.2 °F /  21.8 °C 65.4 °F /  18.6 °C 29.61in /  1002.6hPa SSW 13.0mph /  20.9km/h 22.0mph /  35.4km/h 82% 0.00in /  0mm
11:36 71.3 °F /  21.8 °C 65.2 °F /  18.4 °C 29.61in /  1002.6hPa SSE 10.0mph /  16.1km/h 26.0mph /  41.8km/h 81% 0.00in /  0mm
11:41 71.7 °F /  22.1 °C 65.9 °F /  18.8 °C 29.60in /  1002.3hPa SSW 11.0mph /  17.7km/h 18.0mph /  29km/h 82% 0.00in /  0mm
11:46 72.1 °F /  22.3 °C 65.9 °F /  18.8 °C 29.60in /  1002.3hPa SW 7.0mph /  11.3km/h 22.0mph /  35.4km/h 81% 0.00in /  0mm
11:51 72.5 °F /  22.5 °C 65.6 °F /  18.7 °C 29.61in /  1002.6hPa SW 8.0mph /  12.9km/h 17.0mph /  27.4km/h 79% 0.00in /  0mm
11:56 72.5 °F /  22.5 °C 66.0 °F /  18.9 °C 29.61in /  1002.6hPa SW 15.0mph /  24.1km/h 20.0mph /  32.2km/h 80% 0.00in /  0mm
12:01 72.6 °F /  22.6 °C 65.7 °F /  18.7 °C 29.60in /  1002.3hPa SW 14.0mph /  22.5km/h 27.0mph /  43.5km/h 79% 0.00in /  0mm
12:06 72.9 °F /  22.7 °C 65.7 °F /  18.7 °C 29.60in /  1002.3hPa SSW 17.0mph /  27.4km/h 20.0mph /  32.2km/h 78% 0.00in /  0mm
12:11 72.9 °F /  22.7 °C 65.7 °F /  18.7 °C 29.60in /  1002.3hPa WSW 11.0mph /  17.7km/h 17.0mph /  27.4km/h 78% 0.00in /  0mm
12:16 73.4 °F /  23 °C 66.1 °F /  18.9 °C 29.60in /  1002.3hPa SSE 5.0mph /  8km/h 19.0mph /  30.6km/h 78% 0.00in /  0mm
12:21 73.7 °F /  23.2 °C 66.4 °F /  19.1 °C 29.60in /  1002.3hPa South 17.0mph /  27.4km/h 22.0mph /  35.4km/h 78% 0.00in /  0mm
12:26 73.7 °F /  23.2 °C 65.7 °F /  18.7 °C 29.60in /  1002.3hPa SSW 11.0mph /  17.7km/h 21.0mph /  33.8km/h 76% 0.00in /  0mm
12:31 73.8 °F /  23.2 °C 65.4 °F /  18.6 °C 29.59in /  1001.9hPa SE 11.0mph /  17.7km/h 23.0mph /  37km/h 75% 0.00in /  0mm
12:36 74.0 °F /  23.3 °C 65.2 °F /  18.4 °C 29.59in /  1001.9hPa SW 15.0mph /  24.1km/h 23.0mph /  37km/h 74% 0.00in /  0mm
12:41 74.4 °F /  23.6 °C 65.6 °F /  18.7 °C 29.59in /  1001.9hPa South 19.0mph /  30.6km/h 19.0mph /  30.6km/h 74% 0.00in /  0mm
12:46 74.4 °F /  23.6 °C 64.8 °F /  18.2 °C 29.59in /  1001.9hPa SW 20.0mph /  32.2km/h 21.0mph /  33.8km/h 72% 0.00in /  0mm
12:51 74.5 °F /  23.6 °C 65.3 °F /  18.5 °C 29.59in /  1001.9hPa SSW 16.0mph /  25.7km/h 17.0mph /  27.4km/h 73% 0.00in /  0mm
12:56 75.0 °F /  23.9 °C 65.0 °F /  18.3 °C 29.59in /  1001.9hPa SSW 18.0mph /  29km/h 28.0mph /  45.1km/h 71% 0.00in /  0mm
13:01 75.1 °F /  23.9 °C 64.7 °F /  18.2 °C 29.59in /  1001.9hPa SSW 16.0mph /  25.7km/h 25.0mph /  40.2km/h 70% 0.00in /  0mm
13:06 75.3 °F /  24.1 °C 65.3 °F /  18.5 °C 29.58in /  1001.6hPa SW 15.0mph /  24.1km/h 21.0mph /  33.8km/h 71% 0.00in /  0mm
13:12 75.5 °F /  24.2 °C 65.0 °F /  18.3 °C 29.59in /  1001.9hPa SSW 20.0mph /  32.2km/h 22.0mph /  35.4km/h 70% 0.00in /  0mm
13:17 75.8 °F /  24.3 °C 64.9 °F /  18.3 °C 29.58in /  1001.6hPa SSW 12.0mph /  19.3km/h 21.0mph /  33.8km/h 69% 0.00in /  0mm
13:22 76.5 °F /  24.7 °C 65.2 °F /  18.4 °C 29.58in /  1001.6hPa SSE 12.0mph /  19.3km/h 18.0mph /  29km/h 68% 0.00in /  0mm
13:27 76.3 °F /  24.6 °C 64.1 °F /  17.8 °C 29.58in /  1001.6hPa SSW 15.0mph /  24.1km/h 25.0mph /  40.2km/h 66% 0.00in /  0mm
13:32 76.9 °F /  24.9 °C 64.2 °F /  17.9 °C 29.58in /  1001.6hPa SSW 10.0mph /  16.1km/h 23.0mph /  37km/h 65% 0.00in /  0mm
13:37 77.7 °F /  25.4 °C 65.0 °F /  18.3 °C 29.57in /  1001.2hPa SE 10.0mph /  16.1km/h 18.0mph /  29km/h 65% 0.00in /  0mm
13:42 77.2 °F /  25.1 °C 64.1 °F /  17.8 °C 29.57in /  1001.2hPa SSE 22.0mph /  35.4km/h 22.0mph /  35.4km/h 64% 0.00in /  0mm
13:47 76.7 °F /  24.8 °C 64.1 °F /  17.8 °C 29.57in /  1001.2hPa SSW 16.0mph /  25.7km/h 21.0mph /  33.8km/h 65% 0.00in /  0mm
13:52 76.7 °F /  24.8 °C 64.1 °F /  17.8 °C 29.57in /  1001.2hPa SW 12.0mph /  19.3km/h 22.0mph /  35.4km/h 65% 0.00in /  0mm
13:57 76.9 °F /  24.9 °C 64.2 °F /  17.9 °C 29.57in /  1001.2hPa SSW 14.0mph /  22.5km/h 17.0mph /  27.4km/h 65% 0.00in /  0mm
14:02 77.2 °F /  25.1 °C 63.6 °F /  17.6 °C 29.57in /  1001.2hPa SW 15.0mph /  24.1km/h 24.0mph /  38.6km/h 63% 0.00in /  0mm
14:07 77.2 °F /  25.1 °C 63.6 °F /  17.6 °C 29.56in /  1000.9hPa SW 17.0mph /  27.4km/h 24.0mph /  38.6km/h 63% 0.00in /  0mm
14:12 77.2 °F /  25.1 °C 63.6 °F /  17.6 °C 29.56in /  1000.9hPa SSW 7.0mph /  11.3km/h 20.0mph /  32.2km/h 63% 0.00in /  0mm
14:17 77.6 °F /  25.3 °C 64.5 °F /  18.1 °C 29.56in /  1000.9hPa SW 12.0mph /  19.3km/h 23.0mph /  37km/h 64% 0.00in /  0mm
14:22 78.3 °F /  25.7 °C 63.8 °F /  17.7 °C 29.56in /  1000.9hPa SW 14.0mph /  22.5km/h 22.0mph /  35.4km/h 61% 0.00in /  0mm
14:27 77.9 °F /  25.5 °C 63.8 °F /  17.7 °C 29.55in /  1000.6hPa South 9.0mph /  14.5km/h 23.0mph /  37km/h 62% 0.00in /  0mm
14:32 78.0 °F /  25.6 °C 63.0 °F /  17.2 °C 29.55in /  1000.6hPa SW 23.0mph /  37km/h 28.0mph /  45.1km/h 60% 0.00in /  0mm
14:37 77.5 °F /  25.3 °C 62.5 °F /  16.9 °C 29.55in /  1000.6hPa SW 13.0mph /  20.9km/h 18.0mph /  29km/h 60% 0.00in /  0mm
14:42 77.7 °F /  25.4 °C 63.7 °F /  17.6 °C 29.55in /  1000.6hPa SSE 12.0mph /  19.3km/h 20.0mph /  32.2km/h 62% 0.00in /  0mm
14:47 78.1 °F /  25.6 °C 64.0 °F /  17.8 °C 29.54in /  1000.2hPa SW 12.0mph /  19.3km/h 19.0mph /  30.6km/h 62% 0.00in /  0mm
14:52 78.3 °F /  25.7 °C 63.8 °F /  17.7 °C 29.54in /  1000.2hPa SW 14.0mph /  22.5km/h 23.0mph /  37km/h 61% 0.00in /  0mm
14:57 78.0 °F /  25.6 °C 62.5 °F /  16.9 °C 29.54in /  1000.2hPa SW 20.0mph /  32.2km/h 22.0mph /  35.4km/h 59% 0.00in /  0mm
15:03 78.1 °F /  25.6 °C 63.1 °F /  17.3 °C 29.54in /  1000.2hPa WSW 10.0mph /  16.1km/h 21.0mph /  33.8km/h 60% 0.00in /  0mm
15:08 78.5 °F /  25.8 °C 61.5 °F /  16.4 °C 29.54in /  1000.2hPa SSW 13.0mph /  20.9km/h 19.0mph /  30.6km/h 56% 0.00in /  0mm
15:12 78.6 °F /  25.9 °C 60.6 °F /  15.9 °C 29.53in /  999.9hPa SW 24.0mph /  38.6km/h 31.0mph /  49.9km/h 54% 0.00in /  0mm
15:18 78.3 °F /  25.7 °C 61.3 °F /  16.3 °C 29.53in /  999.9hPa WSW 18.0mph /  29km/h 24.0mph /  38.6km/h 56% 0.00in /  0mm
15:23 78.2 °F /  25.7 °C 62.2 °F /  16.8 °C 29.53in /  999.9hPa SSE 15.0mph /  24.1km/h 28.0mph /  45.1km/h 58% 0.00in /  0mm
15:28 78.0 °F /  25.6 °C 63.0 °F /  17.2 °C 29.53in /  999.9hPa SSW 8.0mph /  12.9km/h 24.0mph /  38.6km/h 60% 0.00in /  0mm
15:33 77.5 °F /  25.3 °C 62.1 °F /  16.7 °C 29.53in /  999.9hPa SSW 13.0mph /  20.9km/h 23.0mph /  37km/h 59% 0.00in /  0mm
15:38 76.8 °F /  24.9 °C 62.3 °F /  16.8 °C 29.53in /  999.9hPa SW 11.0mph /  17.7km/h 26.0mph /  41.8km/h 61% 0.00in /  0mm
15:43 76.5 °F /  24.7 °C 62.5 °F /  16.9 °C 29.53in /  999.9hPa WSW 11.0mph /  17.7km/h 22.0mph /  35.4km/h 62% 0.00in /  0mm
15:48 76.6 °F /  24.8 °C 63.1 °F /  17.3 °C 29.53in /  999.9hPa SSW 10.0mph /  16.1km/h 20.0mph /  32.2km/h 63% 0.00in /  0mm
15:53 76.9 °F /  24.9 °C 62.9 °F /  17.2 °C 29.53in /  999.9hPa SW 18.0mph /  29km/h 19.0mph /  30.6km/h 62% 0.00in /  0mm
15:58 76.9 °F /  24.9 °C 63.4 °F /  17.4 °C 29.53in /  999.9hPa SSW 15.0mph /  24.1km/h 17.0mph /  27.4km/h 63% 0.00in /  0mm
16:03 76.5 °F /  24.7 °C 63.4 °F /  17.4 °C 29.54in /  1000.2hPa SW 12.0mph /  19.3km/h 27.0mph /  43.5km/h 64% 0.00in /  0mm
16:08 75.9 °F /  24.4 °C 63.7 °F /  17.6 °C 29.54in /  1000.2hPa SSE 10.0mph /  16.1km/h 19.0mph /  30.6km/h 66% 0.00in /  0mm
16:13 75.1 °F /  23.9 °C 63.8 °F /  17.7 °C 29.54in /  1000.2hPa SW 13.0mph /  20.9km/h 19.0mph /  30.6km/h 68% 0.00in /  0mm
16:18 74.5 °F /  23.6 °C 64.5 °F /  18.1 °C 29.53in /  999.9hPa SSE 7.0mph /  11.3km/h 15.0mph /  24.1km/h 71% 0.00in /  0mm
16:23 73.8 °F /  23.2 °C 63.4 °F /  17.4 °C 29.53in /  999.9hPa SSW 16.0mph /  25.7km/h 16.0mph /  25.7km/h 70% 0.00in /  0mm
16:28 73.2 °F /  22.9 °C 64.8 °F /  18.2 °C 29.53in /  999.9hPa SSE 10.0mph /  16.1km/h 11.0mph /  17.7km/h 75% 0.00in /  0mm
16:34 72.9 °F /  22.7 °C 63.0 °F /  17.2 °C 29.53in /  999.9hPa SW 8.0mph /  12.9km/h 14.0mph /  22.5km/h 71% 0.00in /  0mm
16:39 73.0 °F /  22.8 °C 63.0 °F /  17.2 °C 29.53in /  999.9hPa SSE 9.0mph /  14.5km/h 11.0mph /  17.7km/h 71% 0.00in /  0mm
16:44 73.1 °F /  22.8 °C 61.9 °F /  16.6 °C 29.54in /  1000.2hPa SSW 6.0mph /  9.7km/h 12.0mph /  19.3km/h 68% 0.00in /  0mm
16:49 73.0 °F /  22.8 °C 63.5 °F /  17.5 °C 29.55in /  1000.6hPa South 10.0mph /  16.1km/h 10.0mph /  16.1km/h 72% 0.00in /  0mm
16:54 72.0 °F /  22.2 °C 63.3 °F /  17.4 °C 29.54in /  1000.2hPa SE 10.0mph /  16.1km/h 12.0mph /  19.3km/h 74% 0.00in /  0mm
16:59 71.8 °F /  22.1 °C 62.7 °F /  17.1 °C 29.54in /  1000.2hPa SSE 8.0mph /  12.9km/h 16.0mph /  25.7km/h 73% 0.00in /  0mm
17:04 72.1 °F /  22.3 °C 62.2 °F /  16.8 °C 29.55in /  1000.6hPa SW 6.0mph /  9.7km/h 13.0mph /  20.9km/h 71% 0.00in /  0mm
17:09 72.0 °F /  22.2 °C 62.1 °F /  16.7 °C 29.54in /  1000.2hPa South 9.0mph /  14.5km/h 12.0mph /  19.3km/h 71% 0.00in /  0mm
17:14 71.7 °F /  22.1 °C 61.8 °F /  16.6 °C 29.54in /  1000.2hPa SSE 5.0mph /  8km/h 10.0mph /  16.1km/h 71% 0.00in /  0mm
17:19 71.6 °F /  22 °C 61.7 °F /  16.5 °C 29.55in /  1000.6hPa SSW 8.0mph /  12.9km/h 12.0mph /  19.3km/h 71% 0.00in /  0mm
17:24 71.4 °F /  21.9 °C 61.9 °F /  16.6 °C 29.54in /  1000.2hPa South 10.0mph /  16.1km/h 14.0mph /  22.5km/h 72% 0.00in /  0mm
17:30 70.7 °F /  21.5 °C 62.0 °F /  16.7 °C 29.54in /  1000.2hPa SSE 10.0mph /  16.1km/h 15.0mph /  24.1km/h 74% 0.00in /  0mm
17:35 70.1 °F /  21.2 °C 61.8 °F /  16.6 °C 29.54in /  1000.2hPa SSE 8.0mph /  12.9km/h 16.0mph /  25.7km/h 75% 0.00in /  0mm
17:40 70.0 °F /  21.1 °C 61.7 °F /  16.5 °C 29.53in /  999.9hPa SSE 7.0mph /  11.3km/h 13.0mph /  20.9km/h 75% 0.00in /  0mm
17:45 70.3 °F /  21.3 °C 61.2 °F /  16.2 °C 29.53in /  999.9hPa SE 8.0mph /  12.9km/h 16.0mph /  25.7km/h 73% 0.00in /  0mm
17:50 70.6 °F /  21.4 °C 61.1 °F /  16.2 °C 29.53in /  999.9hPa South 8.0mph /  12.9km/h 13.0mph /  20.9km/h 72% 0.00in /  0mm
17:55 70.9 °F /  21.6 °C 61.0 °F /  16.1 °C 29.53in /  999.9hPa SW 21.0mph /  33.8km/h 21.0mph /  33.8km/h 71% 0.00in /  0mm
18:00 71.1 °F /  21.7 °C 61.2 °F /  16.2 °C 29.52in /  999.5hPa SSW 11.0mph /  17.7km/h 20.0mph /  32.2km/h 71% 0.00in /  0mm
18:05 71.2 °F /  21.8 °C 61.3 °F /  16.3 °C 29.52in /  999.5hPa South 9.0mph /  14.5km/h 20.0mph /  32.2km/h 71% 0.00in /  0mm
18:10 71.2 °F /  21.8 °C 61.3 °F /  16.3 °C 29.53in /  999.9hPa SSW 7.0mph /  11.3km/h 12.0mph /  19.3km/h 71% 0.00in /  0mm
18:15 71.3 °F /  21.8 °C 61.8 °F /  16.6 °C 29.53in /  999.9hPa SSW 7.0mph /  11.3km/h 15.0mph /  24.1km/h 72% 0.00in /  0mm
18:20 71.2 °F /  21.8 °C 61.7 °F /  16.5 °C 29.53in /  999.9hPa South 16.0mph /  25.7km/h 16.0mph /  25.7km/h 72% 0.00in /  0mm
18:25 71.3 °F /  21.8 °C 62.2 °F /  16.8 °C 29.53in /  999.9hPa South 10.0mph /  16.1km/h 17.0mph /  27.4km/h 73% 0.00in /  0mm
18:30 71.1 °F /  21.7 °C 62.0 °F /  16.7 °C 29.54in /  1000.2hPa SSW 5.0mph /  8km/h 18.0mph /  29km/h 73% 0.00in /  0mm
18:35 71.0 °F /  21.7 °C 62.3 °F /  16.8 °C 29.54in /  1000.2hPa SSW 6.0mph /  9.7km/h 13.0mph /  20.9km/h 74% 0.00in /  0mm
18:40 70.7 °F /  21.5 °C 62.4 °F /  16.9 °C 29.54in /  1000.2hPa SSW 10.0mph /  16.1km/h 10.0mph /  16.1km/h 75% 0.00in /  0mm
18:45 70.5 °F /  21.4 °C 62.2 °F /  16.8 °C 29.54in /  1000.2hPa South 7.0mph /  11.3km/h 9.0mph /  14.5km/h 75% 0.00in /  0mm
18:46 70.5 °F /  21.4 °C 62.2 °F /  16.8 °C 29.54in /  1000.2hPa South 10.0mph /  16.1km/h 10.0mph /  16.1km/h 75% 0.00in /  0mm
18:51 70.4 °F /  21.3 °C 62.5 °F /  16.9 °C 29.55in /  1000.6hPa SSE 10.0mph /  16.1km/h 13.0mph /  20.9km/h 76% 0.00in /  0mm
18:56 70.2 °F /  21.2 °C 62.3 °F /  16.8 °C 29.55in /  1000.6hPa SW 7.0mph /  11.3km/h 12.0mph /  19.3km/h 76% 0.00in /  0mm
19:01 70.1 °F /  21.2 °C 62.6 °F /  17 °C 29.56in /  1000.9hPa SSE 7.0mph /  11.3km/h 13.0mph /  20.9km/h 77% 0.00in /  0mm
19:06 70.1 °F /  21.2 °C 62.6 °F /  17 °C 29.56in /  1000.9hPa SSW 8.0mph /  12.9km/h 10.0mph /  16.1km/h 77% 0.00in /  0mm
19:11 70.1 °F /  21.2 °C 62.6 °F /  17 °C 29.56in /  1000.9hPa SSW 6.0mph /  9.7km/h 12.0mph /  19.3km/h 77% 0.00in /  0mm
19:16 70.0 °F /  21.1 °C 62.5 °F /  16.9 °C 29.57in /  1001.2hPa SSE 5.0mph /  8km/h 10.0mph /  16.1km/h 77% 0.00in /  0mm
19:21 70.0 °F /  21.1 °C 62.5 °F /  16.9 °C 29.57in /  1001.2hPa SSW 4.0mph /  6.4km/h 14.0mph /  22.5km/h 77% 0.00in /  0mm
19:26 70.0 °F /  21.1 °C 62.5 °F /  16.9 °C 29.58in /  1001.6hPa WSW 9.0mph /  14.5km/h 10.0mph /  16.1km/h 77% 0.00in /  0mm
19:31 69.8 °F /  21 °C 60.8 °F /  16 °C 29.60in /  1002.3hPa West 16.0mph /  25.7km/h 20.0mph /  32.2km/h 73% 0.00in /  0mm
19:36 66.5 °F /  19.2 °C 58.0 °F /  14.4 °C 29.61in /  1002.6hPa WNW 8.0mph /  12.9km/h 20.0mph /  32.2km/h 74% 0.00in /  0mm
19:41 64.4 °F /  18 °C 58.1 °F /  14.5 °C 29.60in /  1002.3hPa West 10.0mph /  16.1km/h 10.0mph /  16.1km/h 80% 0.00in /  0mm
19:46 63.5 °F /  17.5 °C 58.2 °F /  14.6 °C 29.60in /  1002.3hPa WNW 10.0mph /  16.1km/h 13.0mph /  20.9km/h 83% 0.00in /  0mm
19:51 63.4 °F /  17.4 °C 58.5 °F /  14.7 °C 29.61in /  1002.6hPa WNW 6.0mph /  9.7km/h 12.0mph /  19.3km/h 84% 0.00in /  0mm
19:56 63.7 °F /  17.6 °C 58.5 °F /  14.7 °C 29.62in /  1002.9hPa WNW 9.0mph /  14.5km/h 24.0mph /  38.6km/h 83% 0.00in /  0mm
20:01 63.7 °F /  17.6 °C 58.1 °F /  14.5 °C 29.61in /  1002.6hPa West 11.0mph /  17.7km/h 21.0mph /  33.8km/h 82% 0.00in /  0mm
20:06 63.7 °F /  17.6 °C 58.1 °F /  14.5 °C 29.60in /  1002.3hPa WSW 9.0mph /  14.5km/h 13.0mph /  20.9km/h 82% 0.00in /  0mm
20:11 63.4 °F /  17.4 °C 57.8 °F /  14.3 °C 29.60in /  1002.3hPa WSW 7.0mph /  11.3km/h 12.0mph /  19.3km/h 82% 0.00in /  0mm
20:16 63.5 °F /  17.5 °C 57.9 °F /  14.4 °C 29.60in /  1002.3hPa WSW 6.0mph /  9.7km/h 11.0mph /  17.7km/h 82% 0.00in /  0mm
20:21 63.2 °F /  17.3 °C 58.0 °F /  14.4 °C 29.59in /  1001.9hPa WNW 4.0mph /  6.4km/h 10.0mph /  16.1km/h 83% 0.00in /  0mm
20:26 63.0 °F /  17.2 °C 58.1 °F /  14.5 °C 29.58in /  1001.6hPa WSW 6.0mph /  9.7km/h 6.0mph /  9.7km/h 84% 0.00in /  0mm
20:31 62.9 °F /  17.2 °C 58.3 °F /  14.6 °C 29.58in /  1001.6hPa WSW 3.0mph /  4.8km/h 8.0mph /  12.9km/h 85% 0.00in /  0mm
20:36 62.6 °F /  17 °C 58.4 °F /  14.7 °C 29.59in /  1001.9hPa West 4.0mph /  6.4km/h 6.0mph /  9.7km/h 86% 0.00in /  0mm
20:42 62.4 °F /  16.9 °C 58.2 °F /  14.6 °C 29.59in /  1001.9hPa WNW 4.0mph /  6.4km/h 4.0mph /  6.4km/h 86% 0.00in /  0mm
20:47 62.2 °F /  16.8 °C 58.3 °F /  14.6 °C 29.58in /  1001.6hPa WNW 5.0mph /  8km/h 5.0mph /  8km/h 87% 0.00in /  0mm
20:52 62.1 °F /  16.7 °C 58.5 °F /  14.7 °C 29.59in /  1001.9hPa West 3.0mph /  4.8km/h 5.0mph /  8km/h 88% 0.00in /  0mm
20:57 62.2 °F /  16.8 °C 58.6 °F /  14.8 °C 29.60in /  1002.3hPa NW 6.0mph /  9.7km/h 14.0mph /  22.5km/h 88% 0.00in /  0mm
21:02 62.2 °F /  16.8 °C 58.6 °F /  14.8 °C 29.60in /  1002.3hPa WNW 9.0mph /  14.5km/h 11.0mph /  17.7km/h 88% 0.00in /  0mm
21:07 62.4 °F /  16.9 °C 59.1 °F /  15.1 °C 29.59in /  1001.9hPa WNW 5.0mph /  8km/h 18.0mph /  29km/h 89% 2.32in /  58.93mm
21:12 61.9 °F /  16.6 °C 58.9 °F /  14.9 °C 29.59in /  1001.9hPa West 6.0mph /  9.7km/h 10.0mph /  16.1km/h 90% 0.15in /  3.81mm
21:17 61.5 °F /  16.4 °C 58.8 °F /  14.9 °C 29.59in /  1001.9hPa WNW 5.0mph /  8km/h 8.0mph /  12.9km/h 91% 0.08in /  2.03mm
21:22 61.4 °F /  16.3 °C 58.8 °F /  14.9 °C 29.60in /  1002.3hPa WNW 10.0mph /  16.1km/h 12.0mph /  19.3km/h 91% 0.04in /  1.02mm
21:27 61.4 °F /  16.3 °C 58.8 °F /  14.9 °C 29.60in /  1002.3hPa WNW 4.0mph /  6.4km/h 10.0mph /  16.1km/h 91% 0.00in /  0mm
21:32 61.2 °F /  16.2 °C 58.6 °F /  14.8 °C 29.62in /  1002.9hPa West 7.0mph /  11.3km/h 8.0mph /  12.9km/h 91% 0.00in /  0mm
21:37 61.3 °F /  16.3 °C 58.3 °F /  14.6 °C 29.63in /  1003.3hPa WNW 13.0mph /  20.9km/h 13.0mph /  20.9km/h 90% 0.00in /  0mm
21:42 61.4 °F /  16.3 °C 57.8 °F /  14.3 °C 29.63in /  1003.3hPa WNW 6.0mph /  9.7km/h 16.0mph /  25.7km/h 88% 0.00in /  0mm
21:47 61.2 °F /  16.2 °C 57.6 °F /  14.2 °C 29.62in /  1002.9hPa NW 8.0mph /  12.9km/h 9.0mph /  14.5km/h 88% 0.00in /  0mm
21:52 61.0 °F /  16.1 °C 56.8 °F /  13.8 °C 29.62in /  1002.9hPa NW 6.0mph /  9.7km/h 11.0mph /  17.7km/h 86% 0.00in /  0mm
21:57 60.8 °F /  16 °C 53.5 °F /  11.9 °C 29.63in /  1003.3hPa NW 8.0mph /  12.9km/h 15.0mph /  24.1km/h 77% 0.00in /  0mm
22:02 60.7 °F /  15.9 °C 52.0 °F /  11.1 °C 29.62in /  1002.9hPa NW 6.0mph /  9.7km/h 20.0mph /  32.2km/h 73% 0.00in /  0mm
22:07 60.3 °F /  15.7 °C 50.5 °F /  10.3 °C 29.62in /  1002.9hPa NW 8.0mph /  12.9km/h 16.0mph /  25.7km/h 70% 0.00in /  0mm
22:12 59.9 °F /  15.5 °C 48.5 °F /  9.2 °C 29.62in /  1002.9hPa WNW 12.0mph /  19.3km/h 15.0mph /  24.1km/h 66% 0.00in /  0mm
22:17 59.7 °F /  15.4 °C 48.3 °F /  9.1 °C 29.64in /  1003.6hPa WNW 8.0mph /  12.9km/h 14.0mph /  22.5km/h 66% 0.00in /  0mm
22:22 59.2 °F /  15.1 °C 46.6 °F /  8.1 °C 29.63in /  1003.3hPa NW 13.0mph /  20.9km/h 18.0mph /  29km/h 63% 0.00in /  0mm
22:27 58.9 °F /  14.9 °C 46.3 °F /  7.9 °C 29.64in /  1003.6hPa NW 12.0mph /  19.3km/h 17.0mph /  27.4km/h 63% 0.00in /  0mm
22:32 58.3 °F /  14.6 °C 46.6 °F /  8.1 °C 29.64in /  1003.6hPa WNW 11.0mph /  17.7km/h 13.0mph /  20.9km/h 65% 0.00in /  0mm
22:37 58.1 °F /  14.5 °C 45.6 °F /  7.6 °C 29.64in /  1003.6hPa NW 7.0mph /  11.3km/h 18.0mph /  29km/h 63% 0.00in /  0mm
22:42 57.7 °F /  14.3 °C 45.2 °F /  7.3 °C 29.64in /  1003.6hPa NW 6.0mph /  9.7km/h 16.0mph /  25.7km/h 63% 0.00in /  0mm
22:48 57.2 °F /  14 °C 44.7 °F /  7.1 °C 29.65in /  1003.9hPa NNW 6.0mph /  9.7km/h 17.0mph /  27.4km/h 63% 0.00in /  0mm
22:53 57.0 °F /  13.9 °C 44.5 °F /  6.9 °C 29.66in /  1004.3hPa NNW 12.0mph /  19.3km/h 17.0mph /  27.4km/h 63% 0.00in /  0mm
22:58 56.8 °F /  13.8 °C 44.8 °F /  7.1 °C 29.67in /  1004.6hPa NW 9.0mph /  14.5km/h 13.0mph /  20.9km/h 64% 0.00in /  0mm
23:03 56.6 °F /  13.7 °C 45.0 °F /  7.2 °C 29.67in /  1004.6hPa WNW 8.0mph /  12.9km/h 16.0mph /  25.7km/h 65% 0.00in /  0mm
23:08 56.3 °F /  13.5 °C 44.7 °F /  7.1 °C 29.67in /  1004.6hPa NW 9.0mph /  14.5km/h 16.0mph /  25.7km/h 65% 0.00in /  0mm
23:13 55.9 °F /  13.3 °C 44.3 °F /  6.8 °C 29.68in /  1005hPa NW 13.0mph /  20.9km/h 14.0mph /  22.5km/h 65% 0.00in /  0mm
23:18 55.7 °F /  13.2 °C 44.5 °F /  6.9 °C 29.68in /  1005hPa NW 14.0mph /  22.5km/h 18.0mph /  29km/h 66% 0.00in /  0mm
23:23 55.1 °F /  12.8 °C 44.7 °F /  7.1 °C 29.69in /  1005.3hPa NW 9.0mph /  14.5km/h 18.0mph /  29km/h 68% 0.00in /  0mm
23:28 54.5 °F /  12.5 °C 43.8 °F /  6.6 °C 29.70in /  1005.6hPa NW 8.0mph /  12.9km/h 18.0mph /  29km/h 67% 0.00in /  0mm
23:33 54.1 °F /  12.3 °C 43.8 °F /  6.6 °C 29.70in /  1005.6hPa NW 11.0mph /  17.7km/h 17.0mph /  27.4km/h 68% 0.00in /  0mm
23:38 53.7 °F /  12.1 °C 43.4 °F /  6.3 °C 29.70in /  1005.6hPa NNW 13.0mph /  20.9km/h 16.0mph /  25.7km/h 68% 0.00in /  0mm
23:43 53.4 °F /  11.9 °C 43.5 °F /  6.4 °C 29.70in /  1005.6hPa NW 9.0mph /  14.5km/h 16.0mph /  25.7km/h 69% 0.00in /  0mm
23:48 53.1 °F /  11.7 °C 44.0 °F /  6.7 °C 29.70in /  1005.6hPa NNW 11.0mph /  17.7km/h 13.0mph /  20.9km/h 71% 0.00in /  0mm
23:53 52.7 °F /  11.5 °C 41.7 °F /  5.4 °C 29.71in /  1006hPa NNW 9.0mph /  14.5km/h 17.0mph /  27.4km/h 66% 0.00in /  0mm
23:58 52.1 °F /  11.2 °C 39.9 °F /  4.4 °C 29.71in /  1006hPa NNW 18.0mph /  29km/h 19.0mph /  30.6km/h 63% 0.00in /  0mm
Compliments of Weather Underground